sensor_id;sensor_type;location;lat;lon;timestamp;P1;durP1;ratioP1;P2;durP2;ratioP2
32427;SDS011;18882;50.952;4.366;2022-11-15T00:19:47;12.25;;;6.80;;
32427;SDS011;18882;50.952;4.366;2022-11-15T00:22:12;20.83;;;8.00;;
32427;SDS011;18882;50.952;4.366;2022-11-15T00:24:38;19.20;;;7.00;;
32427;SDS011;18882;50.952;4.366;2022-11-15T00:34:50;14.75;;;8.23;;
32427;SDS011;18882;50.952;4.366;2022-11-15T00:40:24;20.23;;;8.57;;
32427;SDS011;18882;50.952;4.366;2022-11-15T00:45:45;23.85;;;7.90;;
32427;SDS011;18882;50.952;4.366;2022-11-15T00:48:13;16.95;;;8.32;;
32427;SDS011;18882;50.952;4.366;2022-11-15T00:50:39;15.55;;;7.80;;
32427;SDS011;18882;50.952;4.366;2022-11-15T00:53:04;20.10;;;7.82;;
32427;SDS011;18882;50.952;4.366;2022-11-15T00:55:30;19.25;;;7.85;;
32427;SDS011;18882;50.952;4.366;2022-11-15T00:57:56;19.00;;;8.05;;
32427;SDS011;18882;50.952;4.366;2022-11-15T01:00:21;15.63;;;7.32;;
32427;SDS011;18882;50.952;4.366;2022-11-15T01:02:47;16.90;;;7.60;;
32427;SDS011;18882;50.952;4.366;2022-11-15T01:05:13;28.83;;;8.93;;
32427;SDS011;18882;50.952;4.366;2022-11-15T01:07:38;15.70;;;7.95;;
32427;SDS011;18882;50.952;4.366;2022-11-15T01:10:05;16.25;;;8.05;;
32427;SDS011;18882;50.952;4.366;2022-11-15T01:12:31;16.83;;;8.10;;
32427;SDS011;18882;50.952;4.366;2022-11-15T01:14:57;21.38;;;8.07;;
32427;SDS011;18882;50.952;4.366;2022-11-15T01:17:22;17.92;;;7.68;;
32427;SDS011;18882;50.952;4.366;2022-11-15T01:19:48;17.17;;;7.68;;
32427;SDS011;18882;50.952;4.366;2022-11-15T01:22:15;21.77;;;8.77;;
32427;SDS011;18882;50.952;4.366;2022-11-15T01:24:41;20.33;;;8.30;;
32427;SDS011;18882;50.952;4.366;2022-11-15T01:27:07;14.05;;;6.80;;
32427;SDS011;18882;50.952;4.366;2022-11-15T01:29:33;22.33;;;8.00;;
32427;SDS011;18882;50.952;4.366;2022-11-15T01:31:59;19.88;;;8.27;;
32427;SDS011;18882;50.952;4.366;2022-11-15T01:34:25;22.02;;;8.52;;
32427;SDS011;18882;50.952;4.366;2022-11-15T01:36:51;17.95;;;8.82;;
32427;SDS011;18882;50.952;4.366;2022-11-15T01:39:17;21.02;;;8.05;;
32427;SDS011;18882;50.952;4.366;2022-11-15T01:41:42;17.85;;;8.27;;
32427;SDS011;18882;50.952;4.366;2022-11-15T01:46:56;16.85;;;7.75;;
32427;SDS011;18882;50.952;4.366;2022-11-15T01:49:24;15.30;;;6.88;;
32427;SDS011;18882;50.952;4.366;2022-11-15T01:54:39;17.85;;;8.20;;
32427;SDS011;18882;50.952;4.366;2022-11-15T01:57:06;17.35;;;8.60;;
32427;SDS011;18882;50.952;4.366;2022-11-15T01:59:36;19.15;;;8.07;;
32427;SDS011;18882;50.952;4.366;2022-11-15T02:02:05;15.68;;;7.35;;
32427;SDS011;18882;50.952;4.366;2022-11-15T02:07:26;15.93;;;7.55;;
32427;SDS011;18882;50.952;4.366;2022-11-15T02:09:54;13.68;;;6.78;;
32427;SDS011;18882;50.952;4.366;2022-11-15T02:12:23;17.20;;;6.90;;
32427;SDS011;18882;50.952;4.366;2022-11-15T02:14:51;16.42;;;7.35;;
32427;SDS011;18882;50.952;4.366;2022-11-15T02:36:43;14.55;;;5.53;;
32427;SDS011;18882;50.952;4.366;2022-11-15T02:44:52;11.05;;;5.97;;
32427;SDS011;18882;50.952;4.366;2022-11-15T02:47:20;14.65;;;6.43;;
32427;SDS011;18882;50.952;4.366;2022-11-15T02:49:52;15.50;;;6.47;;
32427;SDS011;18882;50.952;4.366;2022-11-15T02:52:22;16.27;;;5.65;;
32427;SDS011;18882;50.952;4.366;2022-11-15T02:54:54;13.43;;;5.95;;
32427;SDS011;18882;50.952;4.366;2022-11-15T03:00:12;13.23;;;5.97;;
32427;SDS011;18882;50.952;4.366;2022-11-15T03:06:15;14.32;;;5.75;;
32427;SDS011;18882;50.952;4.366;2022-11-15T03:13:27;9.82;;;5.22;;
32427;SDS011;18882;50.952;4.366;2022-11-15T03:16:26;12.10;;;5.43;;
32427;SDS011;18882;50.952;4.366;2022-11-15T03:18:59;12.57;;;5.65;;
32427;SDS011;18882;50.952;4.366;2022-11-15T03:21:46;12.90;;;5.18;;
32427;SDS011;18882;50.952;4.366;2022-11-15T03:24:13;15.82;;;5.50;;
32427;SDS011;18882;50.952;4.366;2022-11-15T03:26:41;10.23;;;4.82;;
32427;SDS011;18882;50.952;4.366;2022-11-15T03:29:11;11.85;;;5.05;;
32427;SDS011;18882;50.952;4.366;2022-11-15T03:32:07;7.68;;;4.85;;
32427;SDS011;18882;50.952;4.366;2022-11-15T03:37:59;13.90;;;4.93;;
32427;SDS011;18882;50.952;4.366;2022-11-15T03:40:16;11.77;;;4.70;;
32427;SDS011;18882;50.952;4.366;2022-11-15T03:45:39;12.25;;;5.00;;
32427;SDS011;18882;50.952;4.366;2022-11-15T03:50:38;8.50;;;3.67;;
32427;SDS011;18882;50.952;4.366;2022-11-15T03:53:05;7.63;;;4.35;;
32427;SDS011;18882;50.952;4.366;2022-11-15T03:55:32;6.38;;;3.70;;
32427;SDS011;18882;50.952;4.366;2022-11-15T03:57:58;7.97;;;3.80;;
32427;SDS011;18882;50.952;4.366;2022-11-15T04:00:26;7.20;;;3.53;;
32427;SDS011;18882;50.952;4.366;2022-11-15T04:02:58;5.60;;;3.47;;
32427;SDS011;18882;50.952;4.366;2022-11-15T04:05:24;7.00;;;3.15;;
32427;SDS011;18882;50.952;4.366;2022-11-15T04:07:50;10.02;;;3.75;;
32427;SDS011;18882;50.952;4.366;2022-11-15T04:10:16;8.65;;;3.90;;
32427;SDS011;18882;50.952;4.366;2022-11-15T04:15:36;6.03;;;2.97;;
32427;SDS011;18882;50.952;4.366;2022-11-15T04:18:02;6.40;;;2.90;;
32427;SDS011;18882;50.952;4.366;2022-11-15T04:20:29;7.57;;;3.10;;
32427;SDS011;18882;50.952;4.366;2022-11-15T04:23:15;4.60;;;2.83;;
32427;SDS011;18882;50.952;4.366;2022-11-15T04:26:04;5.97;;;2.83;;
32427;SDS011;18882;50.952;4.366;2022-11-15T04:28:32;9.57;;;3.25;;
32427;SDS011;18882;50.952;4.366;2022-11-15T04:30:59;4.57;;;2.85;;
32427;SDS011;18882;50.952;4.366;2022-11-15T04:33:24;7.20;;;3.38;;
32427;SDS011;18882;50.952;4.366;2022-11-15T04:35:51;7.00;;;3.03;;
32427;SDS011;18882;50.952;4.366;2022-11-15T04:38:42;7.25;;;3.17;;
32427;SDS011;18882;50.952;4.366;2022-11-15T04:41:08;5.97;;;3.15;;
32427;SDS011;18882;50.952;4.366;2022-11-15T04:43:33;12.05;;;3.25;;
32427;SDS011;18882;50.952;4.366;2022-11-15T04:46:02;5.50;;;3.70;;
32427;SDS011;18882;50.952;4.366;2022-11-15T04:48:28;7.30;;;3.13;;
32427;SDS011;18882;50.952;4.366;2022-11-15T04:50:54;4.60;;;2.63;;
32427;SDS011;18882;50.952;4.366;2022-11-15T04:53:19;4.78;;;2.78;;
32427;SDS011;18882;50.952;4.366;2022-11-15T04:55:45;4.85;;;3.00;;
32427;SDS011;18882;50.952;4.366;2022-11-15T04:58:11;4.38;;;2.47;;
32427;SDS011;18882;50.952;4.366;2022-11-15T05:00:37;3.97;;;2.15;;
32427;SDS011;18882;50.952;4.366;2022-11-15T05:03:02;4.20;;;2.40;;
32427;SDS011;18882;50.952;4.366;2022-11-15T05:05:47;8.77;;;2.50;;
32427;SDS011;18882;50.952;4.366;2022-11-15T05:08:12;4.53;;;2.30;;
32427;SDS011;18882;50.952;4.366;2022-11-15T05:10:38;4.03;;;2.28;;
32427;SDS011;18882;50.952;4.366;2022-11-15T05:13:04;5.60;;;2.45;;
32427;SDS011;18882;50.952;4.366;2022-11-15T05:15:29;4.63;;;1.70;;
32427;SDS011;18882;50.952;4.366;2022-11-15T05:18:01;3.40;;;1.80;;
32427;SDS011;18882;50.952;4.366;2022-11-15T05:20:27;4.82;;;1.92;;
32427;SDS011;18882;50.952;4.366;2022-11-15T05:22:53;4.45;;;2.10;;
32427;SDS011;18882;50.952;4.366;2022-11-15T05:25:20;8.52;;;1.90;;
32427;SDS011;18882;50.952;4.366;2022-11-15T05:27:46;1.95;;;1.60;;
32427;SDS011;18882;50.952;4.366;2022-11-15T05:30:12;3.47;;;1.60;;
32427;SDS011;18882;50.952;4.366;2022-11-15T05:32:38;3.40;;;1.55;;
32427;SDS011;18882;50.952;4.366;2022-11-15T05:35:04;7.30;;;2.10;;
32427;SDS011;18882;50.952;4.366;2022-11-15T05:37:33;6.50;;;1.90;;
32427;SDS011;18882;50.952;4.366;2022-11-15T05:39:59;5.57;;;1.60;;
32427;SDS011;18882;50.952;4.366;2022-11-15T05:42:25;4.22;;;2.17;;
32427;SDS011;18882;50.952;4.366;2022-11-15T05:44:52;3.13;;;1.55;;
32427;SDS011;18882;50.952;4.366;2022-11-15T05:47:19;8.95;;;1.90;;
32427;SDS011;18882;50.952;4.366;2022-11-15T05:50:21;5.45;;;1.88;;
32427;SDS011;18882;50.952;4.366;2022-11-15T05:52:47;6.90;;;2.03;;
32427;SDS011;18882;50.952;4.366;2022-11-15T05:58:25;5.72;;;2.22;;
32427;SDS011;18882;50.952;4.366;2022-11-15T06:00:55;9.02;;;2.10;;
32427;SDS011;18882;50.952;4.366;2022-11-15T06:03:21;3.13;;;1.88;;
32427;SDS011;18882;50.952;4.366;2022-11-15T06:05:46;5.25;;;2.10;;
32427;SDS011;18882;50.952;4.366;2022-11-15T06:08:12;6.22;;;1.70;;
32427;SDS011;18882;50.952;4.366;2022-11-15T06:10:39;4.53;;;1.77;;
32427;SDS011;18882;50.952;4.366;2022-11-15T06:13:05;4.88;;;1.42;;
32427;SDS011;18882;50.952;4.366;2022-11-15T06:15:31;4.97;;;1.63;;
32427;SDS011;18882;50.952;4.366;2022-11-15T06:17:58;3.72;;;1.90;;
32427;SDS011;18882;50.952;4.366;2022-11-15T06:20:25;6.70;;;2.00;;
32427;SDS011;18882;50.952;4.366;2022-11-15T06:22:56;8.68;;;1.92;;
32427;SDS011;18882;50.952;4.366;2022-11-15T06:25:26;3.15;;;1.80;;
32427;SDS011;18882;50.952;4.366;2022-11-15T06:27:52;4.50;;;2.30;;
32427;SDS011;18882;50.952;4.366;2022-11-15T06:30:44;2.45;;;1.77;;
32427;SDS011;18882;50.952;4.366;2022-11-15T06:33:10;5.57;;;2.30;;
32427;SDS011;18882;50.952;4.366;2022-11-15T06:35:36;3.38;;;1.90;;
32427;SDS011;18882;50.952;4.366;2022-11-15T06:38:07;4.80;;;1.92;;
32427;SDS011;18882;50.952;4.366;2022-11-15T06:40:41;2.78;;;1.98;;
32427;SDS011;18882;50.952;4.366;2022-11-15T06:43:09;4.00;;;1.98;;
32427;SDS011;18882;50.952;4.366;2022-11-15T06:45:34;9.00;;;1.90;;
32427;SDS011;18882;50.952;4.366;2022-11-15T06:48:00;1.90;;;1.70;;
32427;SDS011;18882;50.952;4.366;2022-11-15T06:50:26;6.28;;;1.90;;
32427;SDS011;18882;50.952;4.366;2022-11-15T06:52:52;5.78;;;2.15;;
32427;SDS011;18882;50.952;4.366;2022-11-15T06:55:17;3.00;;;1.73;;
32427;SDS011;18882;50.952;4.366;2022-11-15T06:57:49;7.05;;;2.70;;
32427;SDS011;18882;50.952;4.366;2022-11-15T07:00:17;3.65;;;2.15;;
32427;SDS011;18882;50.952;4.366;2022-11-15T07:02:44;6.30;;;2.45;;
32427;SDS011;18882;50.952;4.366;2022-11-15T07:05:11;2.95;;;1.85;;
32427;SDS011;18882;50.952;4.366;2022-11-15T07:07:36;3.78;;;1.95;;
32427;SDS011;18882;50.952;4.366;2022-11-15T07:10:03;3.40;;;1.80;;
32427;SDS011;18882;50.952;4.366;2022-11-15T07:12:29;3.35;;;2.10;;
32427;SDS011;18882;50.952;4.366;2022-11-15T07:14:55;6.47;;;1.90;;
32427;SDS011;18882;50.952;4.366;2022-11-15T07:17:22;4.68;;;2.55;;
32427;SDS011;18882;50.952;4.366;2022-11-15T07:19:47;6.65;;;2.05;;
32427;SDS011;18882;50.952;4.366;2022-11-15T07:22:13;5.72;;;1.98;;
32427;SDS011;18882;50.952;4.366;2022-11-15T07:24:39;2.17;;;1.85;;
32427;SDS011;18882;50.952;4.366;2022-11-15T07:27:06;4.38;;;1.98;;
32427;SDS011;18882;50.952;4.366;2022-11-15T07:29:32;2.40;;;1.67;;
32427;SDS011;18882;50.952;4.366;2022-11-15T07:31:58;11.13;;;1.85;;
32427;SDS011;18882;50.952;4.366;2022-11-15T07:34:24;6.63;;;1.92;;
32427;SDS011;18882;50.952;4.366;2022-11-15T07:36:50;3.70;;;1.98;;
32427;SDS011;18882;50.952;4.366;2022-11-15T07:39:16;4.55;;;1.80;;
32427;SDS011;18882;50.952;4.366;2022-11-15T07:41:42;3.17;;;2.30;;
32427;SDS011;18882;50.952;4.366;2022-11-15T07:44:08;7.80;;;2.05;;
32427;SDS011;18882;50.952;4.366;2022-11-15T07:46:34;7.20;;;2.03;;
32427;SDS011;18882;50.952;4.366;2022-11-15T07:48:59;2.40;;;1.35;;
32427;SDS011;18882;50.952;4.366;2022-11-15T07:51:25;5.05;;;1.40;;
32427;SDS011;18882;50.952;4.366;2022-11-15T07:53:51;3.63;;;1.35;;
32427;SDS011;18882;50.952;4.366;2022-11-15T07:56:16;1.50;;;1.33;;
32427;SDS011;18882;50.952;4.366;2022-11-15T07:58:42;3.25;;;1.35;;
32427;SDS011;18882;50.952;4.366;2022-11-15T08:01:10;5.00;;;1.65;;
32427;SDS011;18882;50.952;4.366;2022-11-15T08:03:36;3.35;;;1.92;;
32427;SDS011;18882;50.952;4.366;2022-11-15T08:06:03;4.38;;;1.50;;
32427;SDS011;18882;50.952;4.366;2022-11-15T08:08:29;2.72;;;1.30;;
32427;SDS011;18882;50.952;4.366;2022-11-15T08:10:57;4.40;;;1.88;;
32427;SDS011;18882;50.952;4.366;2022-11-15T08:13:23;5.47;;;1.20;;
32427;SDS011;18882;50.952;4.366;2022-11-15T08:15:49;5.22;;;1.80;;
32427;SDS011;18882;50.952;4.366;2022-11-15T08:18:15;4.55;;;1.40;;
32427;SDS011;18882;50.952;4.366;2022-11-15T08:20:41;2.75;;;1.27;;
32427;SDS011;18882;50.952;4.366;2022-11-15T08:23:08;2.47;;;1.50;;
32427;SDS011;18882;50.952;4.366;2022-11-15T08:25:35;1.67;;;1.38;;
32427;SDS011;18882;50.952;4.366;2022-11-15T08:28:02;2.85;;;1.80;;
32427;SDS011;18882;50.952;4.366;2022-11-15T08:30:30;4.63;;;1.40;;
32427;SDS011;18882;50.952;4.366;2022-11-15T08:32:59;2.40;;;1.52;;
32427;SDS011;18882;50.952;4.366;2022-11-15T08:35:25;2.80;;;1.48;;
32427;SDS011;18882;50.952;4.366;2022-11-15T08:37:52;7.95;;;1.17;;
32427;SDS011;18882;50.952;4.366;2022-11-15T08:40:18;1.15;;;1.05;;
32427;SDS011;18882;50.952;4.366;2022-11-15T08:42:45;4.28;;;0.60;;
32427;SDS011;18882;50.952;4.366;2022-11-15T08:45:11;6.90;;;1.00;;
32427;SDS011;18882;50.952;4.366;2022-11-15T08:47:37;3.42;;;1.00;;
32427;SDS011;18882;50.952;4.366;2022-11-15T08:50:02;2.17;;;1.10;;
32427;SDS011;18882;50.952;4.366;2022-11-15T08:52:31;1.48;;;0.85;;
32427;SDS011;18882;50.952;4.366;2022-11-15T08:54:57;0.98;;;0.70;;
32427;SDS011;18882;50.952;4.366;2022-11-15T08:57:23;1.05;;;0.75;;
32427;SDS011;18882;50.952;4.366;2022-11-15T08:59:49;1.55;;;0.90;;
32427;SDS011;18882;50.952;4.366;2022-11-15T09:02:15;0.65;;;0.43;;
32427;SDS011;18882;50.952;4.366;2022-11-15T09:04:41;2.80;;;0.57;;
32427;SDS011;18882;50.952;4.366;2022-11-15T09:07:11;4.15;;;0.70;;
32427;SDS011;18882;50.952;4.366;2022-11-15T09:09:38;2.00;;;0.88;;
32427;SDS011;18882;50.952;4.366;2022-11-15T09:12:04;1.77;;;0.65;;
32427;SDS011;18882;50.952;4.366;2022-11-15T09:14:31;1.27;;;0.80;;
32427;SDS011;18882;50.952;4.366;2022-11-15T09:16:57;2.97;;;0.77;;
32427;SDS011;18882;50.952;4.366;2022-11-15T09:19:23;4.32;;;0.70;;
32427;SDS011;18882;50.952;4.366;2022-11-15T09:21:49;2.40;;;0.43;;
32427;SDS011;18882;50.952;4.366;2022-11-15T09:24:15;2.22;;;0.50;;
32427;SDS011;18882;50.952;4.366;2022-11-15T09:26:42;3.08;;;0.80;;
32427;SDS011;18882;50.952;4.366;2022-11-15T09:29:08;1.52;;;0.60;;
32427;SDS011;18882;50.952;4.366;2022-11-15T09:31:34;2.40;;;0.65;;
32427;SDS011;18882;50.952;4.366;2022-11-15T09:33:59;3.72;;;0.50;;
32427;SDS011;18882;50.952;4.366;2022-11-15T09:36:25;5.40;;;1.00;;
32427;SDS011;18882;50.952;4.366;2022-11-15T09:38:51;1.10;;;0.52;;
32427;SDS011;18882;50.952;4.366;2022-11-15T09:41:25;0.90;;;0.57;;
32427;SDS011;18882;50.952;4.366;2022-11-15T09:46:43;6.20;;;0.50;;
32427;SDS011;18882;50.952;4.366;2022-11-15T09:49:41;1.80;;;0.45;;
32427;SDS011;18882;50.952;4.366;2022-11-15T09:52:07;1.38;;;0.60;;
32427;SDS011;18882;50.952;4.366;2022-11-15T09:54:36;0.80;;;0.47;;
32427;SDS011;18882;50.952;4.366;2022-11-15T09:57:04;1.00;;;0.50;;
32427;SDS011;18882;50.952;4.366;2022-11-15T10:02:44;2.33;;;0.70;;
32427;SDS011;18882;50.952;4.366;2022-11-15T10:05:14;2.03;;;0.50;;
32427;SDS011;18882;50.952;4.366;2022-11-15T10:07:48;0.73;;;0.30;;
32427;SDS011;18882;50.952;4.366;2022-11-15T10:10:36;1.83;;;0.52;;
32427;SDS011;18882;50.952;4.366;2022-11-15T10:13:12;3.28;;;0.85;;
32427;SDS011;18882;50.952;4.366;2022-11-15T10:15:44;0.75;;;0.57;;
32427;SDS011;18882;50.952;4.366;2022-11-15T10:18:17;1.80;;;0.43;;
32427;SDS011;18882;50.952;4.366;2022-11-15T10:20:58;2.78;;;0.47;;
32427;SDS011;18882;50.952;4.366;2022-11-15T10:23:25;13.73;;;0.82;;
32427;SDS011;18882;50.952;4.366;2022-11-15T10:25:54;1.75;;;0.28;;
32427;SDS011;18882;50.952;4.366;2022-11-15T10:28:23;5.45;;;0.82;;
32427;SDS011;18882;50.952;4.366;2022-11-15T10:30:55;1.48;;;0.30;;
32427;SDS011;18882;50.952;4.366;2022-11-15T10:38:49;0.82;;;0.30;;
32427;SDS011;18882;50.952;4.366;2022-11-15T10:41:17;1.08;;;0.30;;
32427;SDS011;18882;50.952;4.366;2022-11-15T10:46:42;1.05;;;0.45;;
32427;SDS011;18882;50.952;4.366;2022-11-15T10:49:15;3.58;;;0.40;;
32427;SDS011;18882;50.952;4.366;2022-11-15T10:51:43;0.82;;;0.38;;
32427;SDS011;18882;50.952;4.366;2022-11-15T10:54:20;1.05;;;0.57;;
32427;SDS011;18882;50.952;4.366;2022-11-15T10:56:56;1.58;;;0.30;;
32427;SDS011;18882;50.952;4.366;2022-11-15T10:59:28;0.73;;;0.35;;
32427;SDS011;18882;50.952;4.366;2022-11-15T11:01:56;0.55;;;0.30;;
32427;SDS011;18882;50.952;4.366;2022-11-15T11:04:22;0.85;;;0.35;;
32427;SDS011;18882;50.952;4.366;2022-11-15T11:06:56;1.58;;;0.30;;
32427;SDS011;18882;50.952;4.366;2022-11-15T11:09:28;1.30;;;0.77;;
32427;SDS011;18882;50.952;4.366;2022-11-15T11:11:57;2.22;;;0.38;;
32427;SDS011;18882;50.952;4.366;2022-11-15T11:14:30;3.63;;;0.80;;
32427;SDS011;18882;50.952;4.366;2022-11-15T11:22:34;3.03;;;0.50;;
32427;SDS011;18882;50.952;4.366;2022-11-15T11:28:02;2.70;;;0.45;;
32427;SDS011;18882;50.952;4.366;2022-11-15T11:30:58;1.25;;;0.50;;
32427;SDS011;18882;50.952;4.366;2022-11-15T11:36:22;1.58;;;0.60;;
32427;SDS011;18882;50.952;4.366;2022-11-15T11:42:07;2.97;;;0.38;;
32427;SDS011;18882;50.952;4.366;2022-11-15T11:47:51;1.67;;;0.30;;
32427;SDS011;18882;50.952;4.366;2022-11-15T11:50:26;2.70;;;0.73;;
32427;SDS011;18882;50.952;4.366;2022-11-15T11:56:02;3.58;;;0.80;;
32427;SDS011;18882;50.952;4.366;2022-11-15T11:58:41;3.00;;;0.40;;
32427;SDS011;18882;50.952;4.366;2022-11-15T12:01:17;2.73;;;0.40;;
32427;SDS011;18882;50.952;4.366;2022-11-15T12:03:56;1.13;;;0.30;;
32427;SDS011;18882;50.952;4.366;2022-11-15T12:09:17;2.58;;;0.32;;
32427;SDS011;18882;50.952;4.366;2022-11-15T12:12:06;1.67;;;0.32;;
32427;SDS011;18882;50.952;4.366;2022-11-15T12:14:58;3.50;;;0.30;;
32427;SDS011;18882;50.952;4.366;2022-11-15T12:17:29;4.22;;;0.50;;
32427;SDS011;18882;50.952;4.366;2022-11-15T12:20:02;0.45;;;0.30;;
32427;SDS011;18882;50.952;4.366;2022-11-15T12:22:38;1.83;;;0.30;;
32427;SDS011;18882;50.952;4.366;2022-11-15T12:28:25;0.80;;;0.50;;
32427;SDS011;18882;50.952;4.366;2022-11-15T12:30:40;2.83;;;0.47;;
32427;SDS011;18882;50.952;4.366;2022-11-15T12:33:37;1.67;;;0.70;;
32427;SDS011;18882;50.952;4.366;2022-11-15T12:36:04;2.20;;;0.17;;
32427;SDS011;18882;50.952;4.366;2022-11-15T12:41:20;0.63;;;0.57;;
32427;SDS011;18882;50.952;4.366;2022-11-15T12:43:47;4.35;;;0.43;;
32427;SDS011;18882;50.952;4.366;2022-11-15T12:46:21;0.88;;;0.40;;
32427;SDS011;18882;50.952;4.366;2022-11-15T12:49:11;0.30;;;0.30;;
32427;SDS011;18882;50.952;4.366;2022-11-15T13:02:33;1.85;;;0.60;;
32427;SDS011;18882;50.952;4.366;2022-11-15T13:15:30;1.15;;;0.28;;
32427;SDS011;18882;50.952;4.366;2022-11-15T13:18:47;1.75;;;0.57;;
32427;SDS011;18882;50.952;4.366;2022-11-15T13:20:56;3.55;;;0.38;;
32427;SDS011;18882;50.952;4.366;2022-11-15T13:23:21;0.30;;;0.20;;
32427;SDS011;18882;50.952;4.366;2022-11-15T13:28:46;2.65;;;0.30;;
32427;SDS011;18882;50.952;4.366;2022-11-15T13:33:50;1.02;;;0.25;;
32427;SDS011;18882;50.952;4.366;2022-11-15T13:36:21;1.75;;;0.50;;
32427;SDS011;18882;50.952;4.366;2022-11-15T13:41:32;5.18;;;0.80;;
32427;SDS011;18882;50.952;4.366;2022-11-15T13:43:59;1.15;;;0.45;;
32427;SDS011;18882;50.952;4.366;2022-11-15T13:46:26;0.50;;;0.40;;
32427;SDS011;18882;50.952;4.366;2022-11-15T13:49:03;0.70;;;0.70;;
32427;SDS011;18882;50.952;4.366;2022-11-15T13:51:40;2.47;;;0.30;;
32427;SDS011;18882;50.952;4.366;2022-11-15T13:56:40;0.77;;;0.70;;
32427;SDS011;18882;50.952;4.366;2022-11-15T13:59:10;1.90;;;0.75;;
32427;SDS011;18882;50.952;4.366;2022-11-15T14:01:49;2.78;;;0.75;;
32427;SDS011;18882;50.952;4.366;2022-11-15T14:04:18;1.70;;;0.88;;
32427;SDS011;18882;50.952;4.366;2022-11-15T14:06:47;2.20;;;0.60;;
32427;SDS011;18882;50.952;4.366;2022-11-15T14:09:24;1.23;;;0.55;;
32427;SDS011;18882;50.952;4.366;2022-11-15T14:11:57;0.55;;;0.38;;
32427;SDS011;18882;50.952;4.366;2022-11-15T14:14:28;0.70;;;0.47;;
32427;SDS011;18882;50.952;4.366;2022-11-15T14:16:58;2.28;;;0.80;;
32427;SDS011;18882;50.952;4.366;2022-11-15T14:24:38;0.32;;;0.30;;
32427;SDS011;18882;50.952;4.366;2022-11-15T14:27:17;0.57;;;0.50;;
32427;SDS011;18882;50.952;4.366;2022-11-15T14:29:45;0.30;;;0.30;;
32427;SDS011;18882;50.952;4.366;2022-11-15T14:32:12;0.20;;;0.15;;
32427;SDS011;18882;50.952;4.366;2022-11-15T14:34:46;1.58;;;0.22;;
32427;SDS011;18882;50.952;4.366;2022-11-15T14:37:24;2.38;;;0.70;;
32427;SDS011;18882;50.952;4.366;2022-11-15T14:39:54;1.30;;;0.50;;
32427;SDS011;18882;50.952;4.366;2022-11-15T14:42:21;0.73;;;0.38;;
32427;SDS011;18882;50.952;4.366;2022-11-15T14:44:47;2.35;;;0.30;;
32427;SDS011;18882;50.952;4.366;2022-11-15T14:47:13;1.70;;;0.40;;
32427;SDS011;18882;50.952;4.366;2022-11-15T14:49:39;0.80;;;0.40;;
32427;SDS011;18882;50.952;4.366;2022-11-15T14:54:59;0.85;;;0.65;;
32427;SDS011;18882;50.952;4.366;2022-11-15T14:57:27;1.15;;;0.77;;
32427;SDS011;18882;50.952;4.366;2022-11-15T14:59:53;0.47;;;0.40;;
32427;SDS011;18882;50.952;4.366;2022-11-15T15:02:25;0.57;;;0.45;;
32427;SDS011;18882;50.952;4.366;2022-11-15T15:04:52;1.23;;;0.43;;
32427;SDS011;18882;50.952;4.366;2022-11-15T15:07:18;0.60;;;0.43;;
32427;SDS011;18882;50.952;4.366;2022-11-15T15:09:45;0.93;;;0.70;;
32427;SDS011;18882;50.952;4.366;2022-11-15T15:12:17;0.98;;;0.68;;
32427;SDS011;18882;50.952;4.366;2022-11-15T15:14:47;0.75;;;0.50;;
32427;SDS011;18882;50.952;4.366;2022-11-15T15:17:13;1.50;;;0.88;;
32427;SDS011;18882;50.952;4.366;2022-11-15T15:19:39;1.52;;;0.68;;
32427;SDS011;18882;50.952;4.366;2022-11-15T15:22:05;1.00;;;0.60;;
32427;SDS011;18882;50.952;4.366;2022-11-15T15:24:34;1.02;;;0.68;;
32427;SDS011;18882;50.952;4.366;2022-11-15T15:26:59;8.30;;;0.98;;
32427;SDS011;18882;50.952;4.366;2022-11-15T15:29:26;1.90;;;0.77;;
32427;SDS011;18882;50.952;4.366;2022-11-15T15:31:51;1.15;;;0.85;;
32427;SDS011;18882;50.952;4.366;2022-11-15T15:34:17;2.60;;;1.00;;
32427;SDS011;18882;50.952;4.366;2022-11-15T15:36:42;1.95;;;0.77;;
32427;SDS011;18882;50.952;4.366;2022-11-15T15:39:09;3.63;;;0.90;;
32427;SDS011;18882;50.952;4.366;2022-11-15T15:41:36;2.85;;;0.80;;
32427;SDS011;18882;50.952;4.366;2022-11-15T15:44:02;1.92;;;1.20;;
32427;SDS011;18882;50.952;4.366;2022-11-15T15:46:28;2.88;;;0.80;;
32427;SDS011;18882;50.952;4.366;2022-11-15T15:48:53;1.45;;;0.63;;
32427;SDS011;18882;50.952;4.366;2022-11-15T15:51:19;1.17;;;0.90;;
32427;SDS011;18882;50.952;4.366;2022-11-15T15:53:44;1.88;;;0.82;;
32427;SDS011;18882;50.952;4.366;2022-11-15T15:56:10;2.50;;;0.82;;
32427;SDS011;18882;50.952;4.366;2022-11-15T15:58:36;1.58;;;0.60;;
32427;SDS011;18882;50.952;4.366;2022-11-15T16:01:02;1.65;;;0.90;;
32427;SDS011;18882;50.952;4.366;2022-11-15T16:03:28;3.05;;;1.00;;
32427;SDS011;18882;50.952;4.366;2022-11-15T16:05:53;1.58;;;0.85;;
32427;SDS011;18882;50.952;4.366;2022-11-15T16:11:12;1.02;;;0.98;;
32427;SDS011;18882;50.952;4.366;2022-11-15T16:13:41;1.20;;;0.80;;
32427;SDS011;18882;50.952;4.366;2022-11-15T16:19:15;4.28;;;1.23;;
32427;SDS011;18882;50.952;4.366;2022-11-15T16:24:18;0.95;;;0.85;;
32427;SDS011;18882;50.952;4.366;2022-11-15T16:26:44;1.52;;;1.10;;
32427;SDS011;18882;50.952;4.366;2022-11-15T16:29:11;2.95;;;1.10;;
32427;SDS011;18882;50.952;4.366;2022-11-15T16:31:37;4.10;;;1.23;;
32427;SDS011;18882;50.952;4.366;2022-11-15T16:34:06;1.25;;;0.88;;
32427;SDS011;18882;50.952;4.366;2022-11-15T16:36:55;4.38;;;0.95;;
32427;SDS011;18882;50.952;4.366;2022-11-15T16:42:25;2.20;;;1.40;;
32427;SDS011;18882;50.952;4.366;2022-11-15T16:45:42;1.77;;;1.08;;
32427;SDS011;18882;50.952;4.366;2022-11-15T16:48:46;1.38;;;1.25;;
32427;SDS011;18882;50.952;4.366;2022-11-15T16:51:12;1.58;;;1.00;;
32427;SDS011;18882;50.952;4.366;2022-11-15T16:53:38;2.83;;;1.48;;
32427;SDS011;18882;50.952;4.366;2022-11-15T16:56:12;1.00;;;0.90;;
32427;SDS011;18882;50.952;4.366;2022-11-15T16:58:46;1.15;;;1.02;;
32427;SDS011;18882;50.952;4.366;2022-11-15T17:01:18;2.60;;;1.85;;
32427;SDS011;18882;50.952;4.366;2022-11-15T17:03:47;1.92;;;1.25;;
32427;SDS011;18882;50.952;4.366;2022-11-15T17:06:13;1.30;;;1.10;;
32427;SDS011;18882;50.952;4.366;2022-11-15T17:08:39;3.03;;;1.00;;
32427;SDS011;18882;50.952;4.366;2022-11-15T17:11:06;1.52;;;1.02;;
32427;SDS011;18882;50.952;4.366;2022-11-15T17:13:32;1.85;;;1.08;;
32427;SDS011;18882;50.952;4.366;2022-11-15T17:16:05;1.35;;;1.02;;
32427;SDS011;18882;50.952;4.366;2022-11-15T17:18:33;1.98;;;1.27;;
32427;SDS011;18882;50.952;4.366;2022-11-15T17:21:03;2.90;;;1.33;;
32427;SDS011;18882;50.952;4.366;2022-11-15T17:23:30;1.63;;;1.10;;
32427;SDS011;18882;50.952;4.366;2022-11-15T17:25:58;2.60;;;1.70;;
32427;SDS011;18882;50.952;4.366;2022-11-15T17:28:29;3.60;;;1.40;;
32427;SDS011;18882;50.952;4.366;2022-11-15T17:30:58;5.43;;;1.98;;
32427;SDS011;18882;50.952;4.366;2022-11-15T17:33:24;3.00;;;1.50;;
32427;SDS011;18882;50.952;4.366;2022-11-15T17:35:54;3.33;;;2.20;;
32427;SDS011;18882;50.952;4.366;2022-11-15T17:38:24;3.00;;;1.67;;
32427;SDS011;18882;50.952;4.366;2022-11-15T17:41:03;3.40;;;1.63;;
32427;SDS011;18882;50.952;4.366;2022-11-15T17:43:32;5.25;;;1.42;;
32427;SDS011;18882;50.952;4.366;2022-11-15T17:45:58;2.67;;;1.73;;
32427;SDS011;18882;50.952;4.366;2022-11-15T17:48:24;3.65;;;1.70;;
32427;SDS011;18882;50.952;4.366;2022-11-15T17:50:54;3.10;;;1.60;;
32427;SDS011;18882;50.952;4.366;2022-11-15T17:53:21;3.47;;;1.63;;
32427;SDS011;18882;50.952;4.366;2022-11-15T17:55:47;2.42;;;1.65;;
32427;SDS011;18882;50.952;4.366;2022-11-15T17:58:13;2.42;;;1.50;;
32427;SDS011;18882;50.952;4.366;2022-11-15T18:00:42;3.50;;;2.05;;
32427;SDS011;18882;50.952;4.366;2022-11-15T18:03:11;3.92;;;1.85;;
32427;SDS011;18882;50.952;4.366;2022-11-15T18:05:38;2.75;;;1.90;;